createdAt,value
2019-04-13T00:00:22.920Z,14.50
2019-04-13T00:06:43.235Z,16.20
2019-04-13T00:09:44.573Z,17.80
2019-04-13T00:12:46.127Z,15.50
2019-04-13T00:15:46.713Z,17.67
2019-04-13T00:19:07.040Z,13.73
2019-04-13T00:21:54.578Z,12.47
2019-04-13T00:24:42.194Z,13.63
2019-04-13T00:27:30.544Z,12.33
2019-04-13T00:30:19.123Z,13.10
2019-04-13T00:33:07.377Z,14.90
2019-04-13T00:35:55.018Z,11.80
2019-04-13T00:38:43.374Z,10.97
2019-04-13T00:41:31.370Z,12.50
2019-04-13T00:44:20.206Z,13.27
2019-04-13T00:47:08.747Z,12.60
2019-04-13T00:49:56.886Z,14.30
2019-04-13T00:52:45.270Z,12.30
2019-04-13T00:55:33.468Z,12.73
2019-04-13T00:58:21.515Z,13.77
2019-04-13T01:01:10.087Z,15.80
2019-04-13T01:03:58.476Z,12.90
2019-04-13T01:06:46.647Z,13.20
2019-04-13T01:09:34.892Z,13.63
2019-04-13T01:12:22.844Z,11.40
2019-04-13T01:15:11.402Z,14.03
2019-04-13T01:17:59.146Z,13.23
2019-04-13T01:20:47.199Z,15.10
2019-04-13T01:23:35.147Z,13.20
2019-04-13T01:26:22.882Z,15.10
2019-04-13T01:29:10.394Z,13.40
2019-04-13T01:31:58.196Z,13.27
2019-04-13T01:34:45.996Z,12.00
2019-04-13T01:37:33.911Z,12.30
2019-04-13T01:40:22.275Z,13.67
2019-04-13T01:43:09.840Z,11.70
2019-04-13T01:45:58.636Z,14.83
2019-04-13T01:48:47.018Z,11.80
2019-04-13T01:51:34.478Z,12.43
2019-04-13T01:54:22.763Z,14.53
2019-04-13T01:57:10.871Z,11.67
2019-04-13T01:59:59.008Z,12.40
2019-04-13T02:02:51.689Z,12.50
2019-04-13T02:05:54.544Z,14.00
2019-04-13T02:09:01.837Z,13.40
2019-04-13T02:11:49.550Z,12.17
2019-04-13T02:14:37.770Z,15.60
2019-04-13T02:17:25.980Z,13.27
2019-04-13T02:20:14.455Z,13.50
2019-04-13T02:23:02.459Z,12.60
2019-04-13T02:25:50.777Z,14.43
2019-04-13T02:28:38.264Z,14.80
2019-04-13T02:31:26.484Z,13.43
2019-04-13T02:34:14.386Z,15.33
2019-04-13T02:37:02.369Z,15.93
2019-04-13T02:39:50.401Z,17.50
2019-04-13T02:42:38.885Z,15.53
2019-04-13T02:45:27.188Z,16.00
2019-04-13T02:48:15.317Z,14.63
2019-04-13T02:51:03.780Z,16.37
2019-04-13T02:53:51.317Z,17.47
2019-04-13T02:56:39.746Z,16.90
2019-04-13T02:59:28.043Z,15.00
2019-04-13T03:02:16.340Z,20.27
2019-04-13T03:05:04.804Z,18.27
2019-04-13T03:07:52.277Z,20.27
2019-04-13T03:10:40.663Z,17.13
2019-04-13T03:13:29.386Z,16.30
2019-04-13T03:16:35.773Z,16.80
2019-04-13T03:19:26.969Z,17.90
2019-04-13T03:22:14.916Z,16.57
2019-04-13T03:25:03.063Z,19.23
2019-04-13T03:27:51.148Z,15.73
2019-04-13T03:30:39.957Z,17.90
2019-04-13T03:33:27.711Z,16.77
2019-04-13T03:36:16.373Z,16.57
2019-04-13T03:39:07.641Z,16.70
2019-04-13T03:41:55.798Z,20.00
2019-04-13T03:44:43.664Z,18.10
2019-04-13T03:47:31.811Z,17.00
2019-04-13T03:50:19.785Z,19.30
2019-04-13T03:53:08.284Z,20.13
2019-04-13T03:55:55.812Z,18.70
2019-04-13T03:58:43.488Z,18.57
2019-04-13T04:01:31.491Z,18.50
2019-04-13T04:04:19.054Z,18.50
2019-04-13T04:07:07.024Z,19.50
2019-04-13T04:09:54.946Z,21.53
2019-04-13T04:12:43.139Z,18.93
2019-04-13T04:15:31.692Z,19.57
2019-04-13T04:18:19.891Z,19.00
2019-04-13T04:21:07.822Z,21.33
2019-04-13T04:23:56.079Z,21.27
2019-04-13T04:26:43.752Z,19.10
2019-04-13T04:29:31.339Z,19.43
2019-04-13T04:32:19.846Z,20.93
2019-04-13T04:35:07.483Z,19.37
2019-04-13T04:37:55.006Z,20.23
2019-04-13T04:40:43.287Z,19.97
2019-04-13T04:43:31.170Z,18.20
2019-04-13T04:46:19.422Z,26.30
2019-04-13T04:49:07.614Z,18.47
2019-04-13T04:51:55.923Z,20.83
2019-04-13T04:54:44.147Z,19.40
2019-04-13T04:57:32.671Z,19.47
2019-04-13T05:00:20.903Z,20.17
2019-04-13T05:03:09.098Z,19.93
2019-04-13T05:05:57.684Z,19.13
2019-04-13T05:08:45.918Z,20.73
2019-04-13T05:11:34.363Z,22.37
2019-04-13T05:14:22.383Z,20.60
2019-04-13T05:17:10.635Z,20.67
2019-04-13T05:19:58.063Z,19.30
2019-04-13T05:22:45.671Z,18.90
2019-04-13T05:25:34.091Z,20.27
2019-04-13T05:28:22.616Z,20.23
2019-04-13T05:31:10.951Z,19.50
2019-04-13T05:33:58.739Z,18.43
2019-04-13T05:36:47.806Z,18.40
2019-04-13T05:39:36.591Z,18.87
2019-04-13T05:42:24.868Z,17.93
2019-04-13T05:45:13.439Z,19.47
2019-04-13T05:48:01.619Z,16.97
2019-04-13T05:50:49.995Z,14.83
2019-04-13T05:53:38.486Z,18.53
2019-04-13T05:56:26.757Z,17.67
2019-04-13T05:59:15.222Z,16.77
2019-04-13T06:02:02.975Z,16.47
2019-04-13T06:04:51.537Z,17.63
2019-04-13T06:07:39.870Z,16.70
2019-04-13T06:10:28.214Z,17.00
2019-04-13T06:13:16.378Z,15.17
2019-04-13T06:16:08.767Z,19.73
2019-04-13T06:18:54.301Z,15.70
2019-04-13T06:21:44.781Z,14.37
2019-04-13T06:24:32.353Z,15.33
2019-04-13T06:27:20.820Z,16.93
2019-04-13T06:30:28.179Z,16.73
2019-04-13T06:33:32.628Z,16.13
2019-04-13T06:36:20.506Z,16.10
2019-04-13T06:39:11.395Z,15.10
2019-04-13T06:41:59.239Z,15.37
2019-04-13T06:44:47.494Z,15.90
2019-04-13T06:47:35.661Z,13.83
2019-04-13T06:50:23.890Z,12.80
2019-04-13T06:53:12.158Z,14.50
2019-04-13T06:56:02.896Z,14.90
2019-04-13T06:58:51.784Z,15.03
2019-04-13T07:01:40.389Z,16.00
2019-04-13T07:04:29.105Z,15.43
2019-04-13T07:07:45.938Z,16.17
2019-04-13T07:10:57.222Z,15.07
2019-04-13T07:13:50.995Z,14.20
2019-04-13T07:16:47.434Z,16.20
2019-04-13T07:19:35.487Z,15.50
2019-04-13T07:22:23.848Z,15.10
2019-04-13T07:25:11.828Z,14.23
2019-04-13T07:28:01.891Z,13.23
2019-04-13T07:30:49.252Z,15.10
2019-04-13T07:33:36.943Z,15.97
2019-04-13T07:36:24.972Z,19.07
2019-04-13T07:39:17.263Z,16.33
2019-04-13T07:42:04.934Z,18.13
2019-04-13T07:44:57.365Z,15.53
2019-04-13T07:47:57.743Z,15.17
2019-04-13T07:51:07.801Z,15.47
2019-04-13T07:53:56.382Z,17.33
2019-04-13T07:56:44.615Z,15.00
2019-04-13T07:59:32.671Z,18.10
2019-04-13T08:02:20.687Z,16.97
2019-04-13T08:05:09.020Z,17.63
2019-04-13T08:07:57.279Z,15.50
2019-04-13T08:10:45.223Z,16.97
2019-04-13T08:13:33.493Z,14.53
2019-04-13T08:16:24.839Z,15.90
2019-04-13T08:19:14.656Z,21.13
2019-04-13T08:22:04.770Z,12.90
2019-04-13T08:24:52.595Z,14.80
2019-04-13T08:27:40.095Z,15.20
2019-04-13T08:30:30.380Z,14.57
2019-04-13T08:33:18.372Z,14.90
2019-04-13T08:36:06.692Z,15.37
2019-04-13T08:38:58.964Z,13.43
2019-04-13T08:41:44.485Z,14.20
2019-04-13T08:44:36.392Z,14.60
2019-04-13T08:47:22.583Z,12.67
2019-04-13T08:50:11.091Z,13.73
2019-04-13T08:52:58.696Z,12.93
2019-04-13T08:55:46.573Z,12.17
2019-04-13T08:58:35.175Z,13.80
2019-04-13T09:01:23.051Z,13.00
2019-04-13T09:04:11.279Z,12.90
2019-04-13T09:06:59.451Z,13.13
2019-04-13T09:09:50.277Z,13.70
2019-04-13T09:12:37.079Z,18.43
2019-04-13T09:15:25.435Z,15.43
2019-04-13T09:18:38.387Z,14.40
2019-04-13T09:21:38.278Z,14.50
2019-04-13T09:24:26.676Z,13.13
2019-04-13T09:27:14.932Z,15.03
2019-04-13T09:30:03.831Z,13.03
2019-04-13T09:32:52.427Z,13.30
2019-04-13T09:35:40.308Z,13.90
2019-04-13T09:38:28.253Z,14.03
2019-04-13T09:41:16.679Z,15.00
2019-04-13T09:44:20.722Z,13.40
2019-04-13T09:47:20.292Z,13.33
2019-04-13T09:50:09.087Z,15.17
2019-04-13T09:52:56.890Z,16.43
2019-04-13T09:55:49.690Z,15.10
2019-04-13T09:58:35.239Z,15.60
2019-04-13T10:01:24.191Z,13.83
2019-04-13T10:04:12.941Z,14.00
2019-04-13T10:07:01.954Z,12.77
2019-04-13T10:09:50.342Z,13.50
2019-04-13T10:12:49.099Z,12.73
2019-04-13T10:15:57.475Z,16.40
2019-04-13T10:18:50.060Z,14.77
2019-04-13T10:21:38.062Z,15.03
2019-04-13T10:24:38.500Z,14.90
2019-04-13T10:27:26.483Z,15.80
2019-04-13T10:30:14.870Z,16.10
2019-04-13T10:33:03.247Z,15.70
2019-04-13T10:35:50.744Z,17.00
2019-04-13T10:38:39.270Z,16.43
2019-04-13T10:41:27.427Z,15.60
2019-04-13T10:44:16.288Z,17.30
2019-04-13T10:47:38.792Z,17.13
2019-04-13T10:50:34.121Z,14.43
2019-04-13T10:53:22.375Z,16.50
2019-04-13T10:56:10.387Z,13.67
2019-04-13T10:58:58.375Z,13.00
2019-04-13T11:01:46.130Z,11.73
2019-04-13T11:04:34.571Z,10.20
2019-04-13T11:07:22.819Z,12.10
2019-04-13T11:10:10.906Z,11.43
2019-04-13T11:12:58.845Z,10.80
2019-04-13T11:15:47.023Z,10.53
2019-04-13T11:18:36.976Z,10.03
2019-04-13T11:21:24.682Z,9.70
2019-04-13T11:24:13.360Z,10.37
2019-04-13T11:27:01.587Z,8.60
2019-04-13T11:29:50.027Z,8.80
2019-04-13T11:32:38.060Z,8.37
2019-04-13T11:35:26.518Z,8.00
2019-04-13T11:38:18.461Z,8.17
2019-04-13T11:41:10.703Z,7.47
2019-04-13T11:44:17.470Z,6.67
2019-04-13T11:47:22.350Z,5.83
2019-04-13T11:50:14.052Z,5.63
2019-04-13T11:53:02.135Z,5.53
2019-04-13T11:55:50.516Z,5.70
2019-04-13T11:58:38.379Z,7.23
2019-04-13T12:01:50.262Z,6.47
2019-04-13T12:05:00.070Z,7.10
2019-04-13T12:07:56.204Z,7.23
2019-04-13T12:11:01.700Z,7.40
2019-04-13T12:14:04.402Z,8.00
2019-04-13T12:17:02.112Z,11.50
2019-04-13T12:19:54.494Z,9.03
2019-04-13T12:22:42.737Z,9.63
2019-04-13T12:25:30.667Z,7.63
2019-04-13T12:28:18.500Z,8.40
2019-04-13T12:31:07.148Z,7.53
2019-04-13T12:33:56.043Z,10.90
2019-04-13T12:36:44.134Z,8.30
2019-04-13T12:39:31.835Z,7.10
2019-04-13T12:42:19.992Z,7.17
2019-04-13T12:45:07.851Z,9.00
2019-04-13T12:47:56.356Z,7.37
2019-04-13T12:50:44.144Z,7.10
2019-04-13T12:53:32.539Z,6.13
2019-04-13T12:56:20.480Z,6.53
2019-04-13T12:59:08.700Z,6.23
2019-04-13T13:02:15.958Z,6.00
2019-04-13T13:05:32.476Z,6.60
2019-04-13T13:08:20.386Z,6.30
2019-04-13T13:11:12.168Z,7.20
2019-04-13T13:13:57.479Z,6.97
2019-04-13T13:16:46.606Z,6.53
2019-04-13T13:19:35.140Z,6.40
2019-04-13T13:22:22.715Z,7.60
2019-04-13T13:25:13.815Z,7.37
2019-04-13T13:28:01.419Z,7.57
2019-04-13T13:30:51.038Z,12.90
2019-04-13T13:33:40.253Z,14.30
2019-04-13T13:36:28.912Z,14.80
2019-04-13T13:39:17.007Z,14.27
2019-04-13T13:42:05.581Z,15.53
2019-04-13T13:44:53.822Z,13.47
2019-04-13T13:47:42.911Z,14.47
2019-04-13T13:50:31.095Z,14.13
2019-04-13T13:53:19.273Z,18.90
2019-04-13T13:56:08.639Z,19.50
2019-04-13T13:59:01.171Z,17.37
2019-04-13T14:01:55.996Z,16.57
2019-04-13T14:04:44.553Z,17.90
2019-04-13T14:07:33.370Z,16.00
2019-04-13T14:10:21.417Z,15.67
2019-04-13T14:13:09.807Z,16.27
2019-04-13T14:15:58.109Z,19.30
2019-04-13T14:18:46.227Z,13.43
2019-04-13T14:21:38.215Z,14.03
2019-04-13T14:24:23.723Z,13.80
2019-04-13T14:27:12.315Z,14.73
2019-04-13T14:30:00.452Z,14.87
2019-04-13T14:32:47.983Z,18.37
2019-04-13T14:35:36.690Z,18.10
2019-04-13T14:38:25.020Z,14.27
2019-04-13T14:41:13.808Z,14.60
2019-04-13T14:44:01.437Z,15.87
2019-04-13T14:46:49.013Z,17.07
2019-04-13T14:49:36.584Z,17.63
2019-04-13T14:52:26.624Z,16.67
2019-04-13T14:55:14.591Z,16.10
2019-04-13T14:58:03.368Z,17.53
2019-04-13T15:00:51.725Z,16.50
2019-04-13T15:03:40.144Z,18.20
2019-04-13T15:06:28.667Z,16.83
2019-04-13T15:09:18.062Z,16.50
2019-04-13T15:12:11.524Z,19.10
2019-04-13T15:14:56.420Z,19.70
2019-04-13T15:17:53.761Z,18.33
2019-04-13T15:20:45.973Z,20.67
2019-04-13T15:23:34.881Z,18.40
2019-04-13T15:26:21.423Z,19.97
2019-04-13T15:29:11.050Z,18.87
2019-04-13T15:31:59.653Z,17.40
2019-04-13T15:34:47.555Z,16.23
2019-04-13T15:37:41.886Z,15.90
2019-04-13T15:40:29.563Z,15.27
2019-04-13T15:43:23.166Z,15.37
2019-04-13T15:46:05.061Z,14.47
2019-04-13T15:48:54.052Z,14.60
2019-04-13T15:51:44.502Z,16.53
2019-04-13T15:54:32.929Z,18.40
2019-04-13T15:57:22.064Z,17.73
2019-04-13T16:00:11.127Z,19.77
2019-04-13T16:03:00.538Z,18.87
2019-04-13T16:05:49.666Z,17.90
2019-04-13T16:08:53.471Z,17.50
2019-04-13T16:11:52.562Z,17.87
2019-04-13T16:14:33.105Z,18.47
2019-04-13T16:17:21.463Z,19.27
2019-04-13T16:20:09.986Z,18.03
2019-04-13T16:22:58.836Z,17.90
2019-04-13T16:25:46.946Z,18.57
2019-04-13T16:28:41.541Z,19.53
2019-04-13T16:31:37.671Z,21.53
2019-04-13T16:34:48.746Z,21.40
2019-04-13T16:37:50.532Z,21.10
2019-04-13T16:40:39.406Z,21.47
2019-04-13T16:43:33.102Z,22.60
2019-04-13T16:46:34.667Z,21.77
2019-04-13T16:49:48.694Z,22.17
2019-04-13T16:52:55.899Z,23.60
2019-04-13T16:55:47.380Z,21.00
2019-04-13T16:58:49.385Z,23.03
2019-04-13T17:01:45.945Z,21.03
2019-04-13T17:04:38.342Z,21.40
2019-04-13T17:07:26.768Z,20.97
2019-04-13T17:10:15.083Z,21.17
2019-04-13T17:13:03.827Z,21.97
2019-04-13T17:15:52.423Z,20.70
2019-04-13T17:18:46.479Z,23.00
2019-04-13T17:21:56.593Z,22.97
2019-04-13T17:25:12.300Z,20.97
2019-04-13T17:28:21.692Z,20.90
2019-04-13T17:31:37.120Z,21.37
2019-04-13T17:34:42.072Z,24.13
2019-04-13T17:37:30.039Z,24.97
2019-04-13T17:40:23.963Z,25.67
2019-04-13T17:43:29.907Z,26.27
2019-04-13T17:46:36.994Z,28.00
2019-04-13T17:49:43.055Z,28.40
2019-04-13T17:52:50.594Z,27.57
2019-04-13T17:55:55.706Z,25.37
2019-04-13T17:59:09.535Z,30.10
2019-04-13T18:02:15.671Z,27.60
2019-04-13T18:05:22.855Z,28.37
2019-04-13T18:08:42.419Z,28.77
2019-04-13T18:11:49.103Z,29.77
2019-04-13T18:15:03.269Z,31.77
2019-04-13T18:18:05.939Z,29.87
2019-04-13T18:20:55.026Z,28.33
2019-04-13T18:23:44.047Z,28.63
2019-04-13T18:26:33.629Z,26.20
2019-04-13T18:29:22.113Z,21.27
2019-04-13T18:32:11.082Z,22.30
2019-04-13T18:35:00.326Z,22.93
2019-04-13T18:37:49.569Z,21.67
2019-04-13T18:40:38.636Z,21.70
2019-04-13T18:43:29.654Z,21.30
2019-04-13T18:46:19.094Z,23.47
2019-04-13T18:49:07.518Z,22.17
2019-04-13T18:51:56.597Z,23.57
2019-04-13T18:54:45.153Z,23.00
2019-04-13T18:57:33.913Z,23.00
2019-04-13T19:00:21.661Z,25.87
2019-04-13T19:03:10.684Z,23.33
2019-04-13T19:05:59.282Z,27.17
2019-04-13T19:08:46.831Z,24.60
2019-04-13T19:11:35.284Z,23.50
2019-04-13T19:14:23.688Z,21.07
2019-04-13T19:17:12.762Z,23.40
2019-04-13T19:20:00.845Z,22.10
2019-04-13T19:22:48.827Z,20.93
2019-04-13T19:25:37.512Z,21.27
2019-04-13T19:28:26.135Z,21.50
2019-04-13T19:31:14.570Z,23.30
2019-04-13T19:34:02.592Z,23.33
2019-04-13T19:36:50.122Z,21.37
2019-04-13T19:39:38.504Z,22.90
2019-04-13T19:42:27.295Z,22.00
2019-04-13T19:45:15.591Z,22.60
2019-04-13T19:48:04.580Z,22.50
2019-04-13T19:50:52.871Z,23.30
2019-04-13T19:53:49.476Z,22.57
2019-04-13T19:56:37.295Z,23.57
2019-04-13T19:59:25.984Z,24.27
2019-04-13T20:02:15.702Z,27.53
2019-04-13T20:05:04.485Z,24.17
2019-04-13T20:07:52.711Z,29.23
2019-04-13T20:10:40.800Z,26.37
2019-04-13T20:13:40.741Z,36.63
2019-04-13T20:16:18.947Z,35.80
2019-04-13T20:19:07.101Z,38.30
2019-04-13T20:21:55.616Z,33.47
2019-04-13T20:24:43.839Z,31.50
2019-04-13T20:27:32.559Z,32.97
2019-04-13T20:30:21.582Z,34.30
2019-04-13T20:33:11.006Z,30.60
2019-04-13T20:36:05.206Z,30.17
2019-04-13T20:38:48.113Z,32.10
2019-04-13T20:41:45.667Z,28.50
2019-04-13T20:44:26.114Z,31.27
2019-04-13T20:47:14.068Z,28.73
2019-04-13T20:50:01.621Z,30.77
2019-04-13T20:52:49.895Z,31.60
2019-04-13T20:55:37.583Z,32.10
2019-04-13T20:58:26.859Z,31.70
2019-04-13T21:01:15.211Z,31.70
2019-04-13T21:04:04.404Z,34.60
2019-04-13T21:06:52.496Z,32.47
2019-04-13T21:09:40.295Z,32.07
2019-04-13T21:12:28.792Z,32.57
2019-04-13T21:15:16.355Z,30.40
2019-04-13T21:18:05.667Z,29.63
2019-04-13T21:20:55.359Z,30.97
2019-04-13T21:23:45.207Z,34.23
2019-04-13T21:26:34.867Z,37.47
2019-04-13T21:29:24.217Z,33.13
2019-04-13T21:32:12.296Z,35.67
2019-04-13T21:35:01.481Z,31.40
2019-04-13T21:37:50.879Z,34.93
2019-04-13T21:40:40.420Z,31.53
2019-04-13T21:43:32.590Z,28.40
2019-04-13T21:46:19.542Z,30.30
2019-04-13T21:49:07.987Z,30.30
2019-04-13T21:52:10.542Z,29.70
2019-04-13T21:55:00.368Z,30.70
2019-04-13T21:57:48.703Z,30.93
2019-04-13T22:01:13.241Z,31.00
2019-04-13T22:04:00.859Z,28.10
2019-04-13T22:06:49.732Z,30.97
2019-04-13T22:09:37.384Z,28.57
2019-04-13T22:12:26.386Z,31.93
2019-04-13T22:15:16.008Z,31.20
2019-04-13T22:18:04.144Z,31.30
2019-04-13T22:20:52.098Z,33.60
2019-04-13T22:23:41.029Z,33.30
2019-04-13T22:26:30.481Z,35.53
2019-04-13T22:29:26.883Z,31.97
2019-04-13T22:32:23.219Z,31.27
2019-04-13T22:35:26.187Z,31.10
2019-04-13T22:38:15.351Z,33.00
2019-04-13T22:41:04.919Z,29.20
2019-04-13T22:43:54.365Z,31.50
2019-04-13T22:46:43.491Z,30.33
2019-04-13T22:49:36.567Z,31.07
2019-04-13T22:52:47.457Z,32.23
2019-04-13T22:55:44.836Z,30.47
2019-04-13T22:58:33.393Z,31.60
2019-04-13T23:01:26.598Z,33.70
2019-04-13T23:04:14.975Z,30.47
2019-04-13T23:07:02.548Z,34.60
2019-04-13T23:09:51.960Z,31.43
2019-04-13T23:12:39.990Z,32.43
2019-04-13T23:15:33.061Z,34.70
2019-04-13T23:18:18.726Z,33.97
2019-04-13T23:21:07.271Z,35.20
2019-04-13T23:23:55.134Z,35.77
2019-04-13T23:26:43.006Z,37.50
2019-04-13T23:29:32.348Z,35.20
2019-04-13T23:32:21.006Z,36.83
2019-04-13T23:35:10.514Z,37.27
2019-04-13T23:37:58.613Z,39.07
2019-04-13T23:40:46.767Z,34.07
2019-04-13T23:43:34.325Z,38.57
2019-04-13T23:46:23.957Z,35.27
2019-04-13T23:49:12.556Z,36.40
2019-04-13T23:52:00.501Z,39.93
2019-04-13T23:54:52.419Z,35.30
2019-04-13T23:58:00.203Z,37.47
